Time;durP1;ratioP1;P1;durP2;ratioP2;P2;SDS_P1;SDS_P2;PMS_P1;PMS_P2;Temp;Humidity;BMP_temperature;BMP_pressure;BME280_temperature;BME280_humidity;BME280_pressure;Samples;Min_cycle;Max_cycle;Signal;HPM_P1;HPM_P2
2023/04/29 00:01:06;;;;;;;;;;;16.20;99.90;;;16.55;67.38;98348.81;4906649;28;114657;-88
2023/04/29 00:03:34;;;;;;;;;;;16.20;99.90;;;16.54;67.29;98347.19;4908550;28;112115;-88
2023/04/29 00:06:06;;;;;;;;;;;16.30;99.90;;;16.56;67.41;98342.06;4909079;28;124350;-85
2023/04/29 00:08:33;;;;;;;;;;;16.30;99.90;;;16.56;67.57;98339.28;4911045;28;123544;-87
2023/04/29 00:11:10;;;;;;;;;;;16.20;99.90;;;16.54;67.45;98338.81;4914599;28;114392;-86
2023/04/29 00:13:45;;;;;;;;;;;16.20;99.90;;;16.55;67.43;98348.81;4909610;28;112966;-86
2023/04/29 00:16:16;;;;;;;;;;;16.20;99.90;;;16.53;67.47;98340.81;4911453;28;124186;-86
2023/04/29 00:19:03;;;;;;;;;;;16.20;99.90;;;16.52;67.39;98341.16;4913074;28;124042;-86
2023/04/29 00:21:32;;;;;;;;;;;16.20;99.90;;;16.50;67.40;98338.75;4898463;28;113478;-87
2023/04/29 00:24:03;;;;;;;;;;;16.20;99.90;;;16.50;67.52;98335.16;4913149;28;113906;-86
2023/04/29 00:26:30;;;;;;;;;;;16.20;99.90;;;16.51;67.50;98339.56;4906917;28;123820;-87
2023/04/29 00:29:08;;;;;;;;;;;16.20;99.90;;;16.51;67.38;98336.75;4924779;28;123292;-88
2023/04/29 00:31:54;;;;;;;;;;;16.20;99.90;;;16.46;67.48;98332.28;4906627;28;115736;-87
2023/04/29 00:34:39;;;;;;;;;;;16.20;99.90;;;16.43;67.36;98340.56;4904192;28;113718;-87
2023/04/29 00:37:17;;;;;;;;;;;16.10;99.90;;;16.40;67.53;98344.88;4912170;28;124270;-87
2023/04/29 00:39:51;;;;;;;;;;;16.10;99.90;;;16.40;67.42;98335.72;4912843;28;124008;-87
2023/04/29 00:42:44;;;;;;;;;;;16.10;99.90;;;16.35;67.74;98334.81;4912303;28;113938;-88
2023/04/29 00:45:15;;;;;;;;;;;16.10;99.90;;;16.35;67.54;98339.59;4913284;28;113759;-86
2023/04/29 00:47:51;;;;;;;;;;;16.10;99.90;;;16.33;67.54;98342.75;4887002;28;122187;-87
2023/04/29 00:50:21;;;;;;;;;;;16.10;99.90;;;16.32;67.76;98346.69;4899618;28;123132;-87
2023/04/29 00:53:22;;;;;;;;;;;16.00;99.90;;;16.31;67.82;98349.84;4899040;28;113870;-87
2023/04/29 00:55:51;;;;;;;;;;;16.10;99.90;;;16.30;67.90;98349.03;4884572;28;113399;-88
2023/04/29 00:58:19;;;;;;;;;;;16.10;99.90;;;16.31;67.56;98353.44;4911929;28;124415;-87
2023/04/29 01:00:45;;;;;;;;;;;16.00;99.90;;;16.31;68.11;98358.22;4893454;28;121382;-87
2023/04/29 01:03:20;;;;;;;;;;;16.10;99.90;;;16.30;67.80;98354.59;4907183;28;113483;-86
2023/04/29 01:06:06;;;;;;;;;;;16.10;99.90;;;16.29;67.63;98355.78;4914874;28;111626;-87
2023/04/29 01:09:04;;;;;;;;;;;15.10;99.90;;;16.28;67.65;98354.19;4924776;28;122313;-87
2023/04/29 01:11:44;;;;;;;;;;;16.00;99.90;;;16.28;67.94;98354.19;4915150;28;123693;-88
2023/04/29 01:14:17;;;;;;;;;;;16.00;99.90;;;16.26;67.66;98353.72;4908485;28;115642;-87
2023/04/29 01:17:10;;;;;;;;;;;16.00;99.90;;;16.26;67.65;98359.28;4892054;28;113324;-87
2023/04/29 01:19:57;;;;;;;;;;;16.00;99.90;;;16.23;67.82;98354.44;4919181;28;122777;-87
2023/04/29 01:22:31;;;;;;;;;;;16.00;99.90;;;16.22;67.74;98357.59;4912699;28;123115;-86
2023/04/29 01:25:04;;;;;;;;;;;16.00;99.90;;;16.21;67.82;98358.75;4912406;28;115323;-87
2023/04/29 01:27:38;;;;;;;;;;;16.00;99.90;;;16.20;67.82;98360.75;4894681;28;114773;-88
2023/04/29 01:30:41;;;;;;;;;;;15.90;99.90;;;16.18;67.84;98354.72;4878316;28;123681;-87
2023/04/29 01:33:29;;;;;;;;;;;15.90;99.90;;;16.15;67.82;98363.81;4883003;28;124021;-87
2023/04/29 01:36:22;;;;;;;;;;;15.80;99.90;;;16.11;67.75;98360.91;4866402;28;114026;-86
2023/04/29 01:39:06;;;;;;;;;;;15.90;99.90;;;16.12;67.83;98358.97;4895720;28;113544;-87
2023/04/29 01:42:20;;;;;;;;;;;15.90;99.90;;;16.09;67.61;98365.22;4863329;28;123259;-88
2023/04/29 01:44:54;;;;;;;;;;;15.80;99.90;;;16.06;67.67;98360.38;4878748;28;122652;-87
2023/04/29 01:47:31;;;;;;;;;;;15.80;99.90;;;16.05;67.99;98358.78;4879482;28;114140;-87
2023/04/29 01:50:03;;;;;;;;;;;15.80;99.90;;;16.05;67.50;98365.16;4863780;28;113564;-87
2023/04/29 01:52:40;;;;;;;;;;;15.80;99.90;;;16.04;67.84;98362.69;4877259;28;123258;-87
2023/04/29 01:55:09;;;;;;;;;;;15.80;99.90;;;16.02;67.80;98360.28;4864455;28;122389;-87
2023/04/29 01:58:03;;;;;;;;;;;15.80;99.90;;;16.01;67.79;98360.63;4880438;28;113476;-87
2023/04/29 02:00:56;;;;;;;;;;;15.80;99.90;;;15.98;67.64;98350.22;4897466;28;113400;-87
2023/04/29 02:03:27;;;;;;;;;;;15.70;99.90;;;15.97;67.61;98352.19;4914187;28;122333;-88
2023/04/29 02:05:56;;;;;;;;;;;15.70;99.90;;;15.94;67.76;98355.72;4900044;28;122782;-86
2023/04/29 02:08:32;;;;;;;;;;;15.70;99.90;;;15.96;67.70;98358.13;4910486;28;114924;-88
2023/04/29 02:11:06;;;;;;;;;;;15.70;99.90;;;15.93;67.69;98356.84;4913867;28;113886;-87
2023/04/29 02:13:44;;;;;;;;;;;15.70;99.90;;;15.92;67.67;98357.22;4909383;28;123226;-86
2023/04/29 02:16:27;;;;;;;;;;;15.70;99.90;;;15.89;67.62;98355.97;4901330;28;123421;-87
2023/04/29 02:19:05;;;;;;;;;;;15.60;99.90;;;15.85;67.54;98353.09;4901613;28;114097;-87
2023/04/29 02:21:46;;;;;;;;;;;15.60;99.90;;;15.85;67.53;98360.63;4900641;28;113003;-88
2023/04/29 02:24:40;;;;;;;;;;;15.60;99.90;;;15.83;67.66;98354.63;4901426;28;125073;-87
2023/04/29 02:27:07;;;;;;;;;;;15.60;99.90;;;15.81;67.59;98365.31;4905511;28;122446;-86
2023/04/29 02:29:33;;;;;;;;;;;15.60;99.90;;;15.80;67.40;98367.28;4914075;28;113678;-86
2023/04/29 02:32:02;;;;;;;;;;;15.60;99.90;;;15.80;67.54;98358.94;4918984;28;112514;-87
2023/04/29 02:34:39;;;;;;;;;;;15.50;99.90;;;15.78;67.53;98361.25;4900416;28;123269;-86
2023/04/29 02:37:07;;;;;;;;;;;15.50;99.90;;;15.75;67.47;98362.00;4903588;28;122468;-87
2023/04/29 02:39:33;;;;;;;;;;;15.50;99.90;;;15.75;67.56;98362.00;4919910;28;113164;-88
2023/04/29 02:42:09;;;;;;;;;;;15.40;99.90;;;15.73;67.50;98361.53;4903207;28;111902;-86
2023/04/29 02:44:41;;;;;;;;;;;15.50;99.90;;;15.71;67.37;98361.06;4903409;28;122791;-88
2023/04/29 02:47:18;;;;;;;;;;;15.50;99.90;;;15.70;67.46;98365.03;4888914;28;122005;-87
2023/04/29 02:49:50;;;;;;;;;;;15.40;99.90;;;15.68;67.52;98362.59;4901107;28;113513;-87
2023/04/29 02:52:33;;;;;;;;;;;15.40;99.90;;;15.66;67.76;98358.50;4889486;28;112254;-87
2023/04/29 02:55:07;;;;;;;;;;;15.40;99.90;;;15.63;67.17;98360.03;4919560;28;122480;-88
2023/04/29 02:57:38;;;;;;;;;;;15.40;99.90;;;15.62;67.43;98368.75;4921966;28;122289;-88
2023/04/29 03:00:06;;;;;;;;;;;15.30;99.90;;;15.60;67.45;98365.50;4921676;28;114541;-87
2023/04/29 03:02:38;;;;;;;;;;;15.30;99.90;;;15.58;67.54;98363.09;4906133;28;111802;-87
2023/04/29 03:05:07;;;;;;;;;;;15.30;99.90;;;15.56;67.16;98370.19;4905800;28;123827;-87
2023/04/29 03:07:51;;;;;;;;;;;15.30;99.90;;;15.53;67.22;98380.06;4922466;28;122615;-88
2023/04/29 03:10:31;;;;;;;;;;;15.30;99.90;;;15.52;67.46;98374.84;4905875;28;113627;-86
2023/04/29 03:13:10;;;;;;;;;;;15.30;99.90;;;15.50;67.03;98377.16;4892695;28;113006;-86
2023/04/29 03:15:43;;;;;;;;;;;15.20;99.90;;;15.48;67.37;98376.75;4932971;28;123160;-86
2023/04/29 03:18:20;;;;;;;;;;;15.20;99.90;;;15.46;67.31;98377.06;4908499;28;122054;-88
2023/04/29 03:20:55;;;;;;;;;;;15.20;99.90;;;15.44;67.34;98377.41;4908211;28;113645;-87
2023/04/29 03:23:31;;;;;;;;;;;15.20;99.90;;;15.43;67.08;98383.34;4924708;28;112929;-87
2023/04/29 03:26:10;;;;;;;;;;;15.20;99.90;;;15.40;67.21;98373.75;4908739;28;124911;-86
2023/04/29 03:28:43;;;;;;;;;;;15.20;99.90;;;15.38;67.09;98378.84;4909633;28;122303;-88
2023/04/29 03:31:15;;;;;;;;;;;15.10;99.90;;;15.38;67.15;98373.28;4910386;28;112891;-87
2023/04/29 03:33:52;;;;;;;;;;;15.10;99.90;;;15.34;66.98;98371.56;4926352;28;114119;-87
2023/04/29 03:36:26;;;;;;;;;;;15.10;99.90;;;15.32;67.22;98371.91;4908493;28;122591;-87
2023/04/29 03:38:53;;;;;;;;;;;15.10;99.90;;;15.31;67.07;98370.28;4909085;28;123240;-86
2023/04/29 03:41:19;;;;;;;;;;;15.10;99.90;;;15.29;66.98;98364.28;4895961;28;114203;-86
2023/04/29 03:43:45;;;;;;;;;;;15.00;99.90;;;15.29;66.97;98367.06;4900936;28;111923;-86
2023/04/29 03:46:16;;;;;;;;;;;13.90;99.50;;;15.28;67.09;98371.00;4891136;28;122231;-87
2023/04/29 03:48:51;;;;;;;;;;;15.00;99.90;;;15.26;66.96;98359.44;4910722;28;123410;-87
2023/04/29 03:51:19;;;;;;;;;;;15.00;99.90;;;15.26;67.18;98365.00;4908665;28;113174;-87
2023/04/29 03:54:02;;;;;;;;;;;15.00;99.90;;;15.23;66.90;98363.72;4922316;28;113535;-87
2023/04/29 03:56:30;;;;;;;;;;;15.00;99.90;;;15.21;67.13;98365.25;4895326;28;122481;-87
2023/04/29 03:59:02;;;;;;;;;;;13.80;99.50;;;15.21;66.99;98365.25;4910076;28;122045;-87
2023/04/29 04:01:28;;;;;;;;;;;15.00;99.90;;;15.18;67.04;98361.19;4907101;28;113726;-87
2023/04/29 04:04:14;;;;;;;;;;;14.90;99.90;;;15.16;67.20;98371.88;4900830;28;113928;-87
2023/04/29 04:06:57;;;;;;;;;;;14.90;99.90;;;15.15;67.14;98375.00;4923366;28;122230;-87
2023/04/29 04:09:39;;;;;;;;;;;14.90;99.90;;;15.12;67.01;98367.34;4924087;28;122100;-87
2023/04/29 04:12:14;;;;;;;;;;;14.90;99.90;;;15.13;67.16;98375.38;4904901;28;114014;-86
2023/04/29 04:14:51;;;;;;;;;;;14.90;99.90;;;15.12;67.13;98384.06;4919164;28;112050;-87
2023/04/29 04:17:38;;;;;;;;;;;14.80;99.90;;;15.09;67.28;98388.34;4907883;28;123741;-86
2023/04/29 04:20:31;;;;;;;;;;;14.80;99.90;;;15.06;67.24;98394.63;4903464;28;121945;-86
2023/04/29 04:23:02;;;;;;;;;;;14.80;99.90;;;15.08;67.16;98402.63;4883116;28;113958;-87
2023/04/29 04:25:31;;;;;;;;;;;14.80;99.90;;;15.08;67.71;98402.63;4922611;28;113404;-86
2023/04/29 04:27:58;;;;;;;;;;;14.80;99.90;;;15.09;67.13;98401.44;4903972;28;122548;-87
2023/04/29 04:30:32;;;;;;;;;;;15.60;99.90;;;15.09;67.35;98401.44;4906212;28;123457;-87
2023/04/29 04:33:15;;;;;;;;;;;14.80;99.90;;;15.09;67.33;98420.94;4893357;28;113872;-86
2023/04/29 04:36:02;;;;;;;;;;;14.80;99.90;;;15.08;67.23;98420.13;4904944;28;113243;-86
2023/04/29 04:38:42;;;;;;;;;;;14.80;99.90;;;15.08;67.49;98416.53;4903372;28;123353;-87
2023/04/29 04:41:22;;;;;;;;;;;14.80;99.90;;;15.07;67.32;98420.47;4903897;28;122426;-87
2023/04/29 04:43:58;;;;;;;;;;;14.80;99.90;;;15.08;67.50;98419.31;4880341;28;112869;-87
2023/04/29 04:46:39;;;;;;;;;;;14.80;99.90;;;15.07;67.30;98420.47;4900211;28;112129;-87
2023/04/29 04:49:17;;;;;;;;;;;14.80;99.90;;;15.07;67.34;98429.66;4876043;28;123555;-87
2023/04/29 04:51:46;;;;;;;;;;;14.80;99.90;;;15.09;67.33;98434.84;4881120;28;121683;-87
2023/04/29 04:54:22;;;;;;;;;;;14.80;99.90;;;15.08;67.58;98438.81;4904629;28;115129;-88
2023/04/29 04:56:57;;;;;;;;;;;14.70;99.90;;;15.08;67.57;98438.81;4884252;28;113007;-88
2023/04/29 04:59:27;;;;;;;;;;;14.80;99.90;;;15.09;67.38;98445.97;4890394;28;123466;-86
2023/04/29 05:02:14;;;;;;;;;;;14.80;99.90;;;15.09;67.46;98449.56;4904335;28;122473;-87
2023/04/29 05:04:42;;;;;;;;;;;14.80;99.90;;;15.12;67.78;98451.63;4905362;28;112660;-86
2023/04/29 05:07:08;;;;;;;;;;;14.80;99.90;;;15.14;67.51;98446.53;4897609;28;113130;-87
2023/04/29 05:09:40;;;;;;;;;;;15.20;99.90;;;15.16;67.48;98451.75;4916267;28;123505;-86
2023/04/29 05:12:10;;;;;;;;;;;14.80;99.90;;;15.16;67.58;98457.34;4917517;28;123060;-87
2023/04/29 05:14:45;;;;;;;;;;;14.80;99.90;;;15.15;67.51;98458.47;4895514;28;112550;-87
2023/04/29 05:17:20;;;;;;;;;;;14.80;99.90;;;15.13;67.53;98452.47;4916590;28;113009;-87
2023/04/29 05:19:56;;;;;;;;;;;14.80;99.90;;;15.12;67.79;98468.34;4902097;28;122492;-88
2023/04/29 05:22:34;;;;;;;;;;;14.90;99.90;;;15.13;67.81;98466.38;4901661;28;122701;-88
2023/04/29 05:25:20;;;;;;;;;;;14.80;99.90;;;15.19;67.89;98478.88;4901629;28;113525;-89
2023/04/29 05:27:46;;;;;;;;;;;14.90;99.90;;;15.24;67.69;98481.44;4911342;28;111800;-88
2023/04/29 05:30:16;;;;;;;;;;;14.90;99.90;;;15.24;67.56;98495.34;4900374;28;123424;-87
2023/04/29 05:32:55;;;;;;;;;;;14.90;99.90;;;15.25;67.65;98496.97;4901018;28;123385;-87
2023/04/29 05:35:27;;;;;;;;;;;14.90;99.90;;;15.27;67.54;98497.41;4900275;28;112915;-87
2023/04/29 05:38:20;;;;;;;;;;;14.90;99.90;;;15.24;67.75;98503.69;4929770;28;113494;-86
2023/04/29 05:41:05;;;;;;;;;;;14.90;99.90;;;15.24;67.84;98503.69;4915591;28;123191;-86
2023/04/29 05:43:51;;;;;;;;;;;14.90;99.90;;;15.23;67.85;98502.06;4905738;28;123084;-86
2023/04/29 05:46:19;;;;;;;;;;;14.90;99.90;;;15.30;67.56;98505.06;4902129;28;115080;-87
2023/04/29 05:48:46;;;;;;;;;;;15.00;99.90;;;15.31;67.87;98503.91;4899790;28;113242;-87
2023/04/29 05:51:16;;;;;;;;;;;15.00;99.90;;;15.37;67.42;98502.50;4910922;28;124052;-87
2023/04/29 05:54:10;;;;;;;;;;;15.00;99.90;;;15.44;67.60;98502.69;4894529;28;122480;-86
2023/04/29 05:56:46;;;;;;;;;;;15.00;99.90;;;15.48;67.36;98511.19;4912888;28;112895;-86
2023/04/29 05:59:18;;;;;;;;;;;15.10;99.90;;;15.49;67.25;98515.56;4915346;28;113197;-87
2023/04/29 06:01:46;;;;;;;;;;;15.10;99.90;;;15.50;67.29;98528.34;4899353;28;123500;-88
2023/04/29 06:04:50;;;;;;;;;;;15.20;99.90;;;15.50;67.08;98533.09;4915552;28;124360;-87
2023/04/29 06:07:18;;;;;;;;;;;15.10;99.90;;;15.52;67.17;98537.16;4899052;28;113461;-88
2023/04/29 06:09:45;;;;;;;;;;;15.10;99.90;;;15.55;67.33;98530.06;4913694;28;113115;-87
2023/04/29 06:12:16;;;;;;;;;;;15.20;99.90;;;15.58;67.04;98541.31;4906365;28;124229;-86
2023/04/29 06:14:53;;;;;;;;;;;15.30;99.90;;;15.61;66.82;98528.69;4911151;28;124279;-87
2023/04/29 06:17:22;;;;;;;;;;;15.30;99.90;;;15.62;66.92;98545.00;4901889;28;113726;-87
2023/04/29 06:19:51;;;;;;;;;;;15.30;99.90;;;15.65;66.96;98543.50;4909221;28;112875;-87
2023/04/29 06:22:17;;;;;;;;;;;15.30;99.90;;;15.64;66.68;98548.25;4908766;28;124828;-87
2023/04/29 06:24:43;;;;;;;;;;;15.30;99.90;;;15.64;66.70;98550.25;4910771;28;123686;-89
2023/04/29 06:27:10;;;;;;;;;;;15.30;99.90;;;15.62;66.88;98552.56;4910846;28;113860;-88
2023/04/29 06:29:39;;;;;;;;;;;15.30;99.90;;;15.66;66.67;98550.69;4913496;28;113610;-88
2023/04/29 06:32:06;;;;;;;;;;;15.30;99.90;;;15.67;66.77;98569.03;4897294;28;123244;-87
2023/04/29 06:34:33;;;;;;;;;;;15.40;99.90;;;15.72;66.82;98566.03;4926475;28;123458;-87
2023/04/29 06:37:07;;;;;;;;;;;15.40;99.90;;;15.82;66.74;98579.44;4912491;28;114035;-89
2023/04/29 06:39:34;;;;;;;;;;;15.40;99.90;;;15.86;66.56;98574.81;4900143;28;113701;-87
2023/04/29 06:42:04;;;;;;;;;;;15.50;99.90;;;15.88;66.01;98592.00;4909439;28;123453;-88
2023/04/29 06:44:51;;;;;;;;;;;15.50;99.90;;;15.89;66.17;98579.66;4907447;28;124561;-87
2023/04/29 06:47:19;;;;;;;;;;;15.50;99.90;;;15.90;65.70;98592.44;4903264;28;113565;-88
2023/04/29 06:49:46;;;;;;;;;;;15.60;99.90;;;15.96;65.75;98590.22;4926816;28;113861;-87
2023/04/29 06:52:18;;;;;;;;;;;14.10;99.20;;;16.06;65.15;98577.75;4911012;28;123689;-88
2023/04/29 06:54:44;;;;;;;;;;;15.60;99.70;;;16.08;64.63;98587.38;4899796;28;123363;-86
2023/04/29 06:57:10;;;;;;;;;;;15.70;99.30;;;16.07;64.37;98593.31;4911487;28;114446;-87
2023/04/29 06:59:40;;;;;;;;;;;15.60;98.90;;;16.08;63.84;98590.16;4907072;28;113762;-88
2023/04/29 07:02:06;;;;;;;;;;;15.70;98.90;;;16.07;63.19;98596.13;4895223;28;122702;-87
2023/04/29 07:04:36;;;;;;;;;;;15.70;98.60;;;16.06;63.27;98600.03;4910846;28;123866;-88
2023/04/29 07:07:05;;;;;;;;;;;15.70;98.50;;;16.04;63.35;98594.00;4906476;28;113567;-89
2023/04/29 07:09:32;;;;;;;;;;;15.60;98.30;;;16.06;62.93;98594.47;4912313;28;113283;-86
2023/04/29 07:11:58;;;;;;;;;;;15.70;98.10;;;16.05;62.76;98590.06;4925729;28;124231;-88
2023/04/29 07:14:29;;;;;;;;;;;15.70;98.00;;;16.04;62.12;98600.41;4906749;28;124181;-87
2023/04/29 07:16:56;;;;;;;;;;;15.70;97.70;;;15.99;61.64;98597.88;4887451;28;113592;-87
2023/04/29 07:19:22;;;;;;;;;;;15.60;97.30;;;15.98;61.90;98603.78;4906976;28;113485;-87
2023/04/29 07:22:00;;;;;;;;;;;15.70;97.40;;;15.97;61.84;98611.34;4912426;28;125682;-88
2023/04/29 07:24:28;;;;;;;;;;;15.70;97.40;;;15.96;62.00;98612.50;4927196;28;123589;-87
2023/04/29 07:26:55;;;;;;;;;;;14.30;96.80;;;15.97;62.11;98613.31;4911943;28;115437;-89
2023/04/29 07:29:29;;;;;;;;;;;15.70;97.40;;;16.04;62.06;98619.91;4913253;28;114935;-86
2023/04/29 07:32:06;;;;;;;;;;;15.70;97.40;;;16.04;61.38;98619.91;4911523;28;123772;-88
2023/04/29 07:34:33;;;;;;;;;;;15.70;97.20;;;16.03;60.68;98618.28;4909673;28;123897;-88
2023/04/29 07:37:06;;;;;;;;;;;15.70;96.90;;;16.03;61.27;98623.84;4895424;28;114645;-87
2023/04/29 07:39:34;;;;;;;;;;;15.70;97.00;;;16.09;61.15;98632.78;4905660;28;113492;-89
2023/04/29 07:42:06;;;;;;;;;;;15.70;97.00;;;16.11;60.78;98627.66;4928084;28;124129;-87
2023/04/29 07:44:32;;;;;;;;;;;15.70;96.80;;;16.08;60.58;98608.88;4912162;28;123682;-87
2023/04/29 07:47:00;;;;;;;;;;;15.70;96.60;;;16.10;60.22;98628.84;4910910;28;114460;-88
2023/04/29 07:49:30;;;;;;;;;;;15.70;96.50;;;16.08;59.81;98631.97;4898833;28;112760;-89
2023/04/29 07:51:56;;;;;;;;;;;15.70;96.30;;;16.06;60.10;98628.72;4911253;28;121779;-87
2023/04/29 07:54:31;;;;;;;;;;;15.70;96.20;;;16.12;60.05;98634.88;4904708;28;124016;-87
2023/04/29 07:57:02;;;;;;;;;;;15.70;96.30;;;16.13;60.09;98628.13;4912322;28;114235;-87
2023/04/29 07:59:29;;;;;;;;;;;15.80;96.30;;;16.16;59.98;98634.97;4913362;28;113199;-88
2023/04/29 08:01:56;;;;;;;;;;;15.80;96.20;;;16.19;59.77;98632.28;4909151;28;123218;-88
2023/04/29 08:04:22;;;;;;;;;;;15.80;96.20;;;16.23;59.81;98637.97;4913010;28;123881;-88
2023/04/29 08:06:48;;;;;;;;;;;15.90;96.10;;;16.26;59.46;98632.50;4910940;28;114404;-88
2023/04/29 08:09:17;;;;;;;;;;;15.90;96.00;;;16.27;59.75;98634.09;4912381;28;113896;-87
2023/04/29 08:11:44;;;;;;;;;;;15.90;96.00;;;16.30;59.40;98644.53;4910669;28;124207;-87
2023/04/29 08:14:11;;;;;;;;;;;16.00;95.90;;;16.31;59.44;98640.63;4912209;28;124707;-87
2023/04/29 08:16:42;;;;;;;;;;;15.90;95.80;;;16.33;59.03;98643.88;4910646;28;116654;-88
2023/04/29 08:19:09;;;;;;;;;;;16.00;95.70;;;16.33;58.34;98643.88;4915510;28;114530;-89
2023/04/29 08:21:40;;;;;;;;;;;15.90;95.40;;;16.37;58.16;98648.72;4911244;28;124316;-88
2023/04/29 08:24:08;;;;;;;;;;;16.00;95.50;;;16.39;58.51;98647.22;4929122;28;123982;-88
2023/04/29 08:26:34;;;;;;;;;;;16.00;95.50;;;16.44;58.62;98655.31;4910590;28;114620;-88
2023/04/29 08:29:09;;;;;;;;;;;16.00;95.50;;;16.49;58.00;98662.59;4899486;28;113779;-87
2023/04/29 08:31:39;;;;;;;;;;;16.10;95.30;;;16.47;57.54;98649.03;4911571;28;124335;-88
2023/04/29 08:34:06;;;;;;;;;;;16.10;95.00;;;16.48;57.79;98661.00;4912331;28;124068;-89
2023/04/29 08:36:32;;;;;;;;;;;16.10;95.00;;;16.45;58.06;98658.91;4912021;28;115010;-88
2023/04/29 08:38:58;;;;;;;;;;;16.10;95.00;;;16.44;58.01;98660.91;4912559;28;115737;-87
2023/04/29 08:41:28;;;;;;;;;;;16.10;95.10;;;16.48;58.46;98663.78;4896634;28;124065;-88
2023/04/29 08:43:55;;;;;;;;;;;16.20;95.20;;;16.48;58.64;98658.19;4909743;28;124366;-88
2023/04/29 08:46:24;;;;;;;;;;;17.60;95.90;;;16.47;58.68;98651.81;4910824;28;114530;-88
2023/04/29 08:49:04;;;;;;;;;;;15.70;95.20;;;16.47;58.85;98653.78;4910248;28;114360;-88
2023/04/29 08:51:32;;;;;;;;;;;16.20;95.50;;;16.44;59.09;98657.28;4896258;28;123511;-87
2023/04/29 08:54:06;;;;;;;;;;;15.20;95.00;;;16.42;59.02;98668.81;4896193;28;123740;-88
2023/04/29 08:56:39;;;;;;;;;;;16.10;95.40;;;16.42;59.25;98663.22;4910852;28;113822;-88
2023/04/29 08:59:07;;;;;;;;;;;16.20;95.60;;;16.40;59.04;98670.31;4910423;28;113088;-89
2023/04/29 09:01:41;;;;;;;;;;;16.10;95.60;;;16.40;59.59;98673.13;4909072;28;124544;-88
2023/04/29 09:04:28;;;;;;;;;;;16.10;95.60;;;16.39;59.54;98677.03;4910906;28;123888;-87
2023/04/29 09:06:58;;;;;;;;;;;16.20;95.80;;;16.41;59.58;98664.38;4910779;28;114541;-87
2023/04/29 09:09:27;;;;;;;;;;;16.20;95.80;;;16.45;59.76;98664.50;4909324;28;114188;-88
2023/04/29 09:11:54;;;;;;;;;;;16.10;95.80;;;16.47;59.76;98664.94;4900913;28;124217;-88
2023/04/29 09:14:23;;;;;;;;;;;16.20;95.80;;;16.49;59.66;98663.41;4906945;28;123147;-88
2023/04/29 09:16:55;;;;;;;;;;;16.20;95.70;;;16.50;59.39;98672.63;4909440;28;113459;-87
2023/04/29 09:19:35;;;;;;;;;;;16.20;95.70;;;16.52;59.55;98678.63;4911066;28;113416;-88
2023/04/29 09:22:06;;;;;;;;;;;16.20;95.70;;;16.52;59.15;98673.03;4909159;28;123761;-87
2023/04/29 09:24:33;;;;;;;;;;;16.20;95.50;;;16.51;59.22;98672.25;4909518;28;123998;-87
2023/04/29 09:26:59;;;;;;;;;;;16.20;95.50;;;16.52;59.29;98670.25;4911944;28;115161;-87
2023/04/29 09:29:28;;;;;;;;;;;16.20;95.40;;;16.55;58.91;98670.38;4910428;28;113646;-88
2023/04/29 09:31:57;;;;;;;;;;;16.30;95.60;;;16.57;59.15;98673.59;4909976;28;124240;-89
2023/04/29 09:34:31;;;;;;;;;;;16.30;95.50;;;16.61;58.92;98670.94;4909197;28;123972;-88
2023/04/29 09:36:58;;;;;;;;;;;14.80;94.80;;;16.64;58.61;98675.78;4913282;28;114401;-87
2023/04/29 09:39:40;;;;;;;;;;;16.30;95.40;;;16.67;58.73;98675.06;4907972;28;113754;-88
2023/04/29 09:42:08;;;;;;;;;;;16.20;95.30;;;16.71;58.67;98687.16;4899745;28;124344;-87
2023/04/29 09:44:39;;;;;;;;;;;16.40;95.30;;;16.75;58.26;98676.91;4910333;28;123176;-90
2023/04/29 09:47:08;;;;;;;;;;;16.40;95.20;;;16.78;57.48;98687.38;4910552;28;114379;-88
2023/04/29 09:49:43;;;;;;;;;;;16.40;94.80;;;16.82;57.32;98695.03;4905491;28;113984;-88
2023/04/29 09:52:19;;;;;;;;;;;16.40;95.10;;;16.86;57.60;98693.16;4904525;28;124640;-89
2023/04/29 09:54:48;;;;;;;;;;;16.50;94.80;;;16.89;57.01;98692.44;4910630;28;123195;-88
2023/04/29 09:57:19;;;;;;;;;;;16.50;94.60;;;16.89;57.08;98692.44;4909965;28;116033;-88
2023/04/29 09:59:45;;;;;;;;;;;16.60;94.60;;;16.92;57.06;98686.13;4912101;28;113923;-90
2023/04/29 10:02:18;;;;;;;;;;;16.60;94.50;;;16.93;56.75;98688.59;4910437;28;124219;-87
2023/04/29 10:04:45;;;;;;;;;;;16.60;94.30;;;16.96;56.40;98687.06;4912181;28;123279;-87
2023/04/29 10:07:22;;;;;;;;;;;16.60;94.20;;;16.98;56.22;98687.50;4915122;28;114724;-88
2023/04/29 10:09:54;;;;;;;;;;;15.10;93.40;;;17.03;56.43;98678.84;4913439;28;113717;-89
2023/04/29 10:12:21;;;;;;;;;;;16.70;94.10;;;17.08;55.32;98686.16;4910706;28;125108;-87
2023/04/29 10:15:04;;;;;;;;;;;16.70;93.60;;;17.07;54.98;98673.38;4910510;28;123971;-87
2023/04/29 10:18:16;;;;;;;;;;;16.70;93.60;;;17.05;54.98;98672.94;4905566;28;114524;-89
2023/04/29 10:20:46;;;;;;;;;;;16.70;93.20;;;17.06;54.82;98680.94;4911982;28;113866;-88
2023/04/29 10:23:16;;;;;;;;;;;16.70;93.20;;;17.10;55.19;98681.03;4913339;28;124383;-89
2023/04/29 10:25:43;;;;;;;;;;;16.70;93.40;;;17.17;54.67;98668.06;4911872;28;123826;-88
2023/04/29 10:28:15;;;;;;;;;;;16.70;93.10;;;17.17;54.15;98668.06;4911636;28;113995;-87
2023/04/29 10:30:43;;;;;;;;;;;16.80;92.70;;;17.22;54.63;98675.34;4929574;28;113571;-89
2023/04/29 10:33:10;;;;;;;;;;;16.80;93.00;;;17.29;54.37;98677.53;4915246;28;124183;-88
2023/04/29 10:35:43;;;;;;;;;;;16.90;93.10;;;17.31;53.56;98675.19;4907290;28;96816;-88
2023/04/29 10:38:30;;;;;;;;;;;16.90;92.60;;;17.35;53.93;98664.91;4900106;28;114160;-87
2023/04/29 10:40:57;;;;;;;;;;;16.90;92.60;;;17.36;53.82;98677.72;4886679;28;112809;-90
2023/04/29 10:43:24;;;;;;;;;;;16.30;92.30;;;17.36;53.73;98666.56;4927200;28;123991;-88
2023/04/29 10:46:15;;;;;;;;;;;17.00;92.50;;;17.41;53.38;98663.50;4903157;28;124621;-89
2023/04/29 10:48:45;;;;;;;;;;;17.00;92.50;;;17.45;53.26;98664.38;4910427;28;115592;-88
2023/04/29 10:51:39;;;;;;;;;;;17.10;92.40;;;17.47;53.39;98664.81;4911804;28;114639;-88
2023/04/29 10:54:07;;;;;;;;;;;17.10;92.40;;;17.52;53.34;98658.97;4909822;28;124163;-88
2023/04/29 10:56:53;;;;;;;;;;;17.10;92.20;;;17.52;53.00;98655.38;4909827;28;124988;-88
2023/04/29 10:59:21;;;;;;;;;;;17.20;92.30;;;17.52;53.36;98663.75;4914481;28;115123;-89
2023/04/29 11:01:52;;;;;;;;;;;18.50;92.80;;;17.56;53.24;98653.47;4884003;28;113324;-88
2023/04/29 11:04:22;;;;;;;;;;;17.20;92.30;;;17.59;53.29;98661.09;4905623;28;124121;-88
2023/04/29 11:06:57;;;;;;;;;;;17.30;92.60;;;17.60;52.82;98665.53;4905568;28;124149;-87
2023/04/29 11:09:23;;;;;;;;;;;17.30;91.90;;;17.62;52.76;98658.41;4905411;28;114919;-87
2023/04/29 11:11:56;;;;;;;;;;;17.30;91.70;;;17.67;52.71;98660.91;4910745;28;114195;-89
2023/04/29 11:14:41;;;;;;;;;;;17.30;91.70;;;17.77;52.34;98653.16;4901091;28;124033;-87
2023/04/29 11:17:09;;;;;;;;;;;17.40;91.70;;;17.82;51.97;98656.50;4907646;28;123502;-89
2023/04/29 11:19:46;;;;;;;;;;;16.10;90.80;;;17.87;52.11;98649.81;4899114;28;114337;-89
2023/04/29 11:22:20;;;;;;;;;;;17.50;91.40;;;17.94;51.70;98654.75;4896654;28;114100;-88
2023/04/29 11:25:07;;;;;;;;;;;17.60;91.40;;;17.94;52.03;98647.16;4902946;28;124294;-88
2023/04/29 11:27:42;;;;;;;;;;;17.50;91.30;;;18.02;51.88;98643.34;4894619;28;124038;-90
2023/04/29 11:30:08;;;;;;;;;;;17.60;91.40;;;18.06;50.96;98654.63;4914146;28;116774;-87
2023/04/29 11:32:42;;;;;;;;;;;17.80;90.80;;;18.13;50.33;98640.78;4904742;28;111813;-88
2023/04/29 11:35:21;;;;;;;;;;;17.80;90.60;;;18.18;49.69;98642.50;4910514;28;124247;-87
2023/04/29 11:37:47;;;;;;;;;;;17.80;90.20;;;18.23;49.43;98648.59;4908479;28;123725;-88
2023/04/29 11:40:16;;;;;;;;;;;18.00;90.00;;;18.22;48.79;98644.19;4910095;28;115801;-87